sensor_id;sensor_type;location;lat;lon;timestamp;pressure;altitude;pressure_sealevel;temperature;humidity
76819;BME280;65772;51.096;17.006;2024-02-26T00:00:59;99171.83;;;10.33;54.41
76819;BME280;65772;51.096;17.006;2024-02-26T00:03:31;99171.64;;;10.32;54.53
76819;BME280;65772;51.096;17.006;2024-02-26T00:06:05;99168.88;;;10.29;54.67
76819;BME280;65772;51.096;17.006;2024-02-26T00:08:36;99165.11;;;10.27;54.54
76819;BME280;65772;51.096;17.006;2024-02-26T00:11:07;99161.34;;;10.25;54.57
76819;BME280;65772;51.096;17.006;2024-02-26T00:13:38;99160.11;;;10.23;54.45
76819;BME280;65772;51.096;17.006;2024-02-26T00:16:09;99160.42;;;10.20;54.50
76819;BME280;65772;51.096;17.006;2024-02-26T00:18:40;99155.92;;;10.17;54.50
76819;BME280;65772;51.096;17.006;2024-02-26T00:21:11;99163.23;;;10.15;54.69
76819;BME280;65772;51.096;17.006;2024-02-26T00:23:42;99163.90;;;10.13;54.36
76819;BME280;65772;51.096;17.006;2024-02-26T00:26:12;99162.52;;;10.11;54.62
76819;BME280;65772;51.096;17.006;2024-02-26T00:28:44;99160.26;;;10.09;54.68
76819;BME280;65772;51.096;17.006;2024-02-26T00:31:15;99154.79;;;10.09;54.72
76819;BME280;65772;51.096;17.006;2024-02-26T00:33:46;99149.52;;;10.09;54.88
76819;BME280;65772;51.096;17.006;2024-02-26T00:36:17;99146.95;;;10.09;54.79
76819;BME280;65772;51.096;17.006;2024-02-26T00:38:49;99150.69;;;10.08;54.75
76819;BME280;65772;51.096;17.006;2024-02-26T00:41:21;99151.20;;;10.06;54.82
76819;BME280;65772;51.096;17.006;2024-02-26T00:43:52;99142.82;;;10.04;54.67
76819;BME280;65772;51.096;17.006;2024-02-26T00:46:23;99149.45;;;10.03;54.64
76819;BME280;65772;51.096;17.006;2024-02-26T00:48:54;99148.59;;;10.02;54.81
76819;BME280;65772;51.096;17.006;2024-02-26T00:51:25;99146.53;;;10.02;54.95
76819;BME280;65772;51.096;17.006;2024-02-26T00:53:56;99148.23;;;10.02;55.02
76819;BME280;65772;51.096;17.006;2024-02-26T00:56:27;99146.71;;;10.02;54.87
76819;BME280;65772;51.096;17.006;2024-02-26T00:58:58;99145.34;;;10.02;55.10
76819;BME280;65772;51.096;17.006;2024-02-26T01:01:29;99142.95;;;10.01;54.97
76819;BME280;65772;51.096;17.006;2024-02-26T01:03:59;99149.09;;;10.02;55.29
76819;BME280;65772;51.096;17.006;2024-02-26T01:06:30;99146.34;;;10.00;55.18
76819;BME280;65772;51.096;17.006;2024-02-26T01:09:01;99148.20;;;9.99;55.14
76819;BME280;65772;51.096;17.006;2024-02-26T01:11:32;99142.06;;;9.99;55.16
76819;BME280;65772;51.096;17.006;2024-02-26T01:14:03;99140.86;;;9.99;55.08
76819;BME280;65772;51.096;17.006;2024-02-26T01:16:34;99138.98;;;9.98;55.01
76819;BME280;65772;51.096;17.006;2024-02-26T01:19:04;99139.13;;;9.97;55.09
76819;BME280;65772;51.096;17.006;2024-02-26T01:21:35;99130.44;;;9.97;54.89
76819;BME280;65772;51.096;17.006;2024-02-26T01:24:07;99130.27;;;9.96;54.92
76819;BME280;65772;51.096;17.006;2024-02-26T01:26:37;99129.58;;;9.95;55.38
76819;BME280;65772;51.096;17.006;2024-02-26T01:29:08;99128.71;;;9.94;54.88
76819;BME280;65772;51.096;17.006;2024-02-26T01:31:39;99127.00;;;9.93;55.16
76819;BME280;65772;51.096;17.006;2024-02-26T01:34:10;99127.31;;;9.91;55.37
76819;BME280;65772;51.096;17.006;2024-02-26T01:36:40;99128.31;;;9.90;55.34
76819;BME280;65772;51.096;17.006;2024-02-26T01:39:11;99126.58;;;9.88;55.15
76819;BME280;65772;51.096;17.006;2024-02-26T01:41:42;99127.08;;;9.86;55.18
76819;BME280;65772;51.096;17.006;2024-02-26T01:44:14;99121.79;;;9.84;55.23
76819;BME280;65772;51.096;17.006;2024-02-26T01:46:45;99123.13;;;9.82;55.33
76819;BME280;65772;51.096;17.006;2024-02-26T01:49:16;99125.32;;;9.81;55.24
76819;BME280;65772;51.096;17.006;2024-02-26T01:51:47;99125.11;;;9.80;55.28
76819;BME280;65772;51.096;17.006;2024-02-26T01:54:18;99126.45;;;9.78;55.61
76819;BME280;65772;51.096;17.006;2024-02-26T01:56:50;99125.41;;;9.76;55.85
76819;BME280;65772;51.096;17.006;2024-02-26T01:59:21;99123.86;;;9.75;55.63
76819;BME280;65772;51.096;17.006;2024-02-26T02:01:55;99125.23;;;9.74;55.64
76819;BME280;65772;51.096;17.006;2024-02-26T02:04:28;99121.45;;;9.72;55.55
76819;BME280;65772;51.096;17.006;2024-02-26T02:06:59;99119.74;;;9.72;55.55
76819;BME280;65772;51.096;17.006;2024-02-26T02:09:31;99116.83;;;9.70;55.84
76819;BME280;65772;51.096;17.006;2024-02-26T02:12:02;99117.65;;;9.69;56.13
76819;BME280;65772;51.096;17.006;2024-02-26T02:14:33;99113.70;;;9.67;56.15
76819;BME280;65772;51.096;17.006;2024-02-26T02:17:04;99110.45;;;9.66;56.04
76819;BME280;65772;51.096;17.006;2024-02-26T02:19:34;99110.79;;;9.66;56.19
76819;BME280;65772;51.096;17.006;2024-02-26T02:22:05;99111.64;;;9.66;56.18
76819;BME280;65772;51.096;17.006;2024-02-26T02:24:36;99114.89;;;9.67;56.38
76819;BME280;65772;51.096;17.006;2024-02-26T02:27:07;99112.86;;;9.67;56.51
76819;BME280;65772;51.096;17.006;2024-02-26T02:29:40;99112.84;;;9.67;56.80
76819;BME280;65772;51.096;17.006;2024-02-26T02:32:12;99111.83;;;9.67;56.73
76819;BME280;65772;51.096;17.006;2024-02-26T02:34:43;99107.57;;;9.67;56.80
76819;BME280;65772;51.096;17.006;2024-02-26T02:37:14;99113.52;;;9.66;56.52
76819;BME280;65772;51.096;17.006;2024-02-26T02:39:45;99114.02;;;9.65;56.63
76819;BME280;65772;51.096;17.006;2024-02-26T02:42:15;99114.17;;;9.64;57.09
76819;BME280;65772;51.096;17.006;2024-02-26T02:44:46;99116.73;;;9.64;57.10
76819;BME280;65772;51.096;17.006;2024-02-26T02:47:17;99120.83;;;9.65;56.84
76819;BME280;65772;51.096;17.006;2024-02-26T02:49:47;99119.81;;;9.65;56.97
76819;BME280;65772;51.096;17.006;2024-02-26T02:52:18;99121.00;;;9.64;56.37
76819;BME280;65772;51.096;17.006;2024-02-26T02:54:49;99119.11;;;9.62;56.82
76819;BME280;65772;51.096;17.006;2024-02-26T02:57:20;99119.95;;;9.61;56.95
76819;BME280;65772;51.096;17.006;2024-02-26T02:59:50;99120.11;;;9.61;56.87
76819;BME280;65772;51.096;17.006;2024-02-26T03:02:21;99115.84;;;9.61;56.66
76819;BME280;65772;51.096;17.006;2024-02-26T03:04:54;99113.06;;;9.57;56.79
76819;BME280;65772;51.096;17.006;2024-02-26T03:07:25;99114.90;;;9.55;56.74
76819;BME280;65772;51.096;17.006;2024-02-26T03:09:55;99117.63;;;9.53;56.77
76819;BME280;65772;51.096;17.006;2024-02-26T03:12:27;99115.71;;;9.50;56.45
76819;BME280;65772;51.096;17.006;2024-02-26T03:14:58;99114.83;;;9.49;56.40
76819;BME280;65772;51.096;17.006;2024-02-26T03:17:32;99115.14;;;9.47;56.46
76819;BME280;65772;51.096;17.006;2024-02-26T03:20:03;99113.08;;;9.46;57.04
76819;BME280;65772;51.096;17.006;2024-02-26T03:22:34;99109.84;;;9.45;56.82
76819;BME280;65772;51.096;17.006;2024-02-26T03:25:07;99111.71;;;9.45;56.93
76819;BME280;65772;51.096;17.006;2024-02-26T03:27:37;99110.16;;;9.44;57.15
76819;BME280;65772;51.096;17.006;2024-02-26T03:30:09;99113.22;;;9.44;56.70
76819;BME280;65772;51.096;17.006;2024-02-26T03:32:40;99115.09;;;9.43;57.03
76819;BME280;65772;51.096;17.006;2024-02-26T03:35:11;99110.64;;;9.41;57.08
76819;BME280;65772;51.096;17.006;2024-02-26T03:37:42;99108.40;;;9.39;57.35
76819;BME280;65772;51.096;17.006;2024-02-26T03:40:14;99102.92;;;9.37;57.00
76819;BME280;65772;51.096;17.006;2024-02-26T03:42:45;99106.14;;;9.36;56.92
76819;BME280;65772;51.096;17.006;2024-02-26T03:45:16;99108.32;;;9.34;56.87
76819;BME280;65772;51.096;17.006;2024-02-26T03:47:47;99105.73;;;9.32;57.02
76819;BME280;65772;51.096;17.006;2024-02-26T03:50:18;99107.77;;;9.31;57.27
76819;BME280;65772;51.096;17.006;2024-02-26T03:52:48;99103.83;;;9.29;57.42
76819;BME280;65772;51.096;17.006;2024-02-26T03:55:19;99104.32;;;9.28;57.68
76819;BME280;65772;51.096;17.006;2024-02-26T03:57:54;99101.41;;;9.28;57.63
76819;BME280;65772;51.096;17.006;2024-02-26T04:00:25;99102.27;;;9.27;57.57
76819;BME280;65772;51.096;17.006;2024-02-26T04:02:58;99102.05;;;9.25;57.45
76819;BME280;65772;51.096;17.006;2024-02-26T04:05:29;99105.60;;;9.23;57.78
76819;BME280;65772;51.096;17.006;2024-02-26T04:08:00;99106.44;;;9.21;57.80
76819;BME280;65772;51.096;17.006;2024-02-26T04:10:30;99104.05;;;9.20;57.95
76819;BME280;65772;51.096;17.006;2024-02-26T04:13:01;99103.86;;;9.20;57.91
76819;BME280;65772;51.096;17.006;2024-02-26T04:15:33;99104.02;;;9.19;57.90
76819;BME280;65772;51.096;17.006;2024-02-26T04:18:04;99101.63;;;9.18;57.86
76819;BME280;65772;51.096;17.006;2024-02-26T04:20:35;99104.02;;;9.19;57.92
76819;BME280;65772;51.096;17.006;2024-02-26T04:23:06;99103.70;;;9.20;57.74
76819;BME280;65772;51.096;17.006;2024-02-26T04:25:37;99104.05;;;9.20;58.11
76819;BME280;65772;51.096;17.006;2024-02-26T04:28:07;99105.23;;;9.20;57.78
76819;BME280;65772;51.096;17.006;2024-02-26T04:30:38;99106.05;;;9.18;57.92
76819;BME280;65772;51.096;17.006;2024-02-26T04:33:09;99109.10;;;9.17;57.67
76819;BME280;65772;51.096;17.006;2024-02-26T04:35:40;99110.77;;;9.15;57.62
76819;BME280;65772;51.096;17.006;2024-02-26T04:38:12;99115.15;;;9.13;57.79
76819;BME280;65772;51.096;17.006;2024-02-26T04:40:42;99113.27;;;9.11;57.57
76819;BME280;65772;51.096;17.006;2024-02-26T04:43:13;99112.90;;;9.09;57.88
76819;BME280;65772;51.096;17.006;2024-02-26T04:45:45;99115.94;;;9.07;57.83
76819;BME280;65772;51.096;17.006;2024-02-26T04:48:15;99117.25;;;9.05;57.51
76819;BME280;65772;51.096;17.006;2024-02-26T04:50:46;99116.35;;;9.02;58.04
76819;BME280;65772;51.096;17.006;2024-02-26T04:53:17;99119.58;;;9.01;58.02
76819;BME280;65772;51.096;17.006;2024-02-26T04:55:47;99118.37;;;9.00;58.22
76819;BME280;65772;51.096;17.006;2024-02-26T04:58:18;99120.91;;;8.99;58.35
76819;BME280;65772;51.096;17.006;2024-02-26T05:00:49;99120.40;;;8.99;58.57
76819;BME280;65772;51.096;17.006;2024-02-26T05:03:20;99119.21;;;8.99;58.85
76819;BME280;65772;51.096;17.006;2024-02-26T05:05:51;99121.62;;;9.00;58.77
76819;BME280;65772;51.096;17.006;2024-02-26T05:08:21;99117.20;;;9.03;58.89
76819;BME280;65772;51.096;17.006;2024-02-26T05:10:52;99119.95;;;9.03;59.29
76819;BME280;65772;51.096;17.006;2024-02-26T05:13:23;99120.17;;;9.06;59.35
76819;BME280;65772;51.096;17.006;2024-02-26T05:15:53;99121.23;;;9.08;58.95
76819;BME280;65772;51.096;17.006;2024-02-26T05:18:24;99118.36;;;9.10;59.07
76819;BME280;65772;51.096;17.006;2024-02-26T05:20:55;99121.10;;;9.11;59.02
76819;BME280;65772;51.096;17.006;2024-02-26T05:23:26;99120.07;;;9.11;59.13
76819;BME280;65772;51.096;17.006;2024-02-26T05:25:57;99122.80;;;9.11;59.02
76819;BME280;65772;51.096;17.006;2024-02-26T05:28:27;99114.63;;;9.10;58.89
76819;BME280;65772;51.096;17.006;2024-02-26T05:30:58;99117.85;;;9.09;59.26
76819;BME280;65772;51.096;17.006;2024-02-26T05:33:29;99117.99;;;9.08;58.88
76819;BME280;65772;51.096;17.006;2024-02-26T05:36:00;99119.36;;;9.08;59.23
76819;BME280;65772;51.096;17.006;2024-02-26T05:38:33;99117.98;;;9.08;59.16
76819;BME280;65772;51.096;17.006;2024-02-26T05:41:05;99121.04;;;9.07;59.37
76819;BME280;65772;51.096;17.006;2024-02-26T05:43:37;99125.98;;;9.07;59.20
76819;BME280;65772;51.096;17.006;2024-02-26T05:46:08;99127.16;;;9.07;59.18
76819;BME280;65772;51.096;17.006;2024-02-26T05:48:38;99126.82;;;9.07;59.41
76819;BME280;65772;51.096;17.006;2024-02-26T05:51:10;99127.85;;;9.07;59.14
76819;BME280;65772;51.096;17.006;2024-02-26T05:53:41;99128.36;;;9.07;59.42
76819;BME280;65772;51.096;17.006;2024-02-26T05:56:12;99129.89;;;9.07;59.37
76819;BME280;65772;51.096;17.006;2024-02-26T05:58:43;99131.58;;;9.06;59.46
76819;BME280;65772;51.096;17.006;2024-02-26T06:01:13;99141.64;;;9.07;59.66
76819;BME280;65772;51.096;17.006;2024-02-26T06:03:45;99142.17;;;9.08;59.66
76819;BME280;65772;51.096;17.006;2024-02-26T06:06:16;99144.21;;;9.08;59.56
76819;BME280;65772;51.096;17.006;2024-02-26T06:08:47;99147.14;;;9.09;59.75
76819;BME280;65772;51.096;17.006;2024-02-26T06:11:19;99146.45;;;9.10;59.77
76819;BME280;65772;51.096;17.006;2024-02-26T06:13:49;99144.93;;;9.10;59.80
76819;BME280;65772;51.096;17.006;2024-02-26T06:16:20;99144.08;;;9.11;60.10
76819;BME280;65772;51.096;17.006;2024-02-26T06:18:51;99150.57;;;9.13;59.87
76819;BME280;65772;51.096;17.006;2024-02-26T06:21:21;99149.73;;;9.14;59.93
76819;BME280;65772;51.096;17.006;2024-02-26T06:23:52;99144.12;;;9.14;59.89
76819;BME280;65772;51.096;17.006;2024-02-26T06:26:23;99140.55;;;9.15;60.01
76819;BME280;65772;51.096;17.006;2024-02-26T06:28:53;99146.02;;;9.15;60.17
76819;BME280;65772;51.096;17.006;2024-02-26T06:31:24;99150.27;;;9.15;59.94
76819;BME280;65772;51.096;17.006;2024-02-26T06:33:57;99148.73;;;9.15;60.15
76819;BME280;65772;51.096;17.006;2024-02-26T06:36:28;99146.02;;;9.16;60.14
76819;BME280;65772;51.096;17.006;2024-02-26T06:39:00;99145.02;;;9.16;60.12
76819;BME280;65772;51.096;17.006;2024-02-26T06:41:32;99145.54;;;9.17;59.83
76819;BME280;65772;51.096;17.006;2024-02-26T06:44:03;99147.77;;;9.18;59.92
76819;BME280;65772;51.096;17.006;2024-02-26T06:46:33;99147.95;;;9.19;60.05
76819;BME280;65772;51.096;17.006;2024-02-26T06:49:04;99152.89;;;9.19;59.91
76819;BME280;65772;51.096;17.006;2024-02-26T06:51:35;99150.52;;;9.20;60.04
76819;BME280;65772;51.096;17.006;2024-02-26T06:54:06;99152.23;;;9.20;59.81
76819;BME280;65772;51.096;17.006;2024-02-26T06:56:37;99152.41;;;9.21;60.36
76819;BME280;65772;51.096;17.006;2024-02-26T06:59:08;99153.27;;;9.22;60.49
76819;BME280;65772;51.096;17.006;2024-02-26T07:01:40;99156.50;;;9.23;60.33
76819;BME280;65772;51.096;17.006;2024-02-26T07:04:11;99156.55;;;9.25;60.05
76819;BME280;65772;51.096;17.006;2024-02-26T07:06:42;99161.52;;;9.27;60.15
76819;BME280;65772;51.096;17.006;2024-02-26T07:09:13;99161.04;;;9.29;60.16
76819;BME280;65772;51.096;17.006;2024-02-26T07:11:45;99160.39;;;9.30;60.36
76819;BME280;65772;51.096;17.006;2024-02-26T07:14:15;99162.80;;;9.32;60.37
76819;BME280;65772;51.096;17.006;2024-02-26T07:16:46;99166.37;;;9.33;60.12
76819;BME280;65772;51.096;17.006;2024-02-26T07:19:17;99163.50;;;9.35;60.54
76819;BME280;65772;51.096;17.006;2024-02-26T07:21:48;99167.48;;;9.38;60.70
76819;BME280;65772;51.096;17.006;2024-02-26T07:24:18;99165.48;;;9.41;60.66
76819;BME280;65772;51.096;17.006;2024-02-26T07:26:49;99166.02;;;9.44;60.40
76819;BME280;65772;51.096;17.006;2024-02-26T07:29:20;99165.71;;;9.46;60.67
76819;BME280;65772;51.096;17.006;2024-02-26T07:31:50;99162.00;;;9.47;60.76
76819;BME280;65772;51.096;17.006;2024-02-26T07:34:21;99165.98;;;9.51;60.46
76819;BME280;65772;51.096;17.006;2024-02-26T07:36:57;99162.94;;;9.54;60.75
76819;BME280;65772;51.096;17.006;2024-02-26T07:39:27;99161.95;;;9.57;60.30
76819;BME280;65772;51.096;17.006;2024-02-26T07:41:58;99160.98;;;9.60;60.83
76819;BME280;65772;51.096;17.006;2024-02-26T07:44:29;99167.16;;;9.63;60.60
76819;BME280;65772;51.096;17.006;2024-02-26T07:47:00;99169.25;;;9.67;60.47
76819;BME280;65772;51.096;17.006;2024-02-26T07:49:32;99169.64;;;9.70;60.68
76819;BME280;65772;51.096;17.006;2024-02-26T07:52:07;99168.50;;;9.72;60.34
76819;BME280;65772;51.096;17.006;2024-02-26T07:54:38;99170.56;;;9.74;60.38
76819;BME280;65772;51.096;17.006;2024-02-26T07:57:09;99173.16;;;9.78;60.57
76819;BME280;65772;51.096;17.006;2024-02-26T07:59:41;99172.18;;;9.81;60.49
76819;BME280;65772;51.096;17.006;2024-02-26T08:02:14;99173.59;;;9.83;60.41
76819;BME280;65772;51.096;17.006;2024-02-26T08:04:45;99174.98;;;9.87;60.11
76819;BME280;65772;51.096;17.006;2024-02-26T08:07:15;99174.70;;;9.90;60.21
76819;BME280;65772;51.096;17.006;2024-02-26T08:09:46;99174.41;;;9.94;60.22
76819;BME280;65772;51.096;17.006;2024-02-26T08:12:17;99176.48;;;9.97;60.49
76819;BME280;65772;51.096;17.006;2024-02-26T08:14:48;99175.85;;;10.01;60.51
76819;BME280;65772;51.096;17.006;2024-02-26T08:17:18;99175.05;;;10.05;59.80
76819;BME280;65772;51.096;17.006;2024-02-26T08:19:49;99177.97;;;10.08;60.22
76819;BME280;65772;51.096;17.006;2024-02-26T08:22:20;99177.86;;;10.12;60.16
76819;BME280;65772;51.096;17.006;2024-02-26T08:24:51;99174.67;;;10.16;60.30
76819;BME280;65772;51.096;17.006;2024-02-26T08:27:22;99169.11;;;10.20;60.13
76819;BME280;65772;51.096;17.006;2024-02-26T08:29:52;99168.65;;;10.23;60.17
76819;BME280;65772;51.096;17.006;2024-02-26T08:32:23;99166.66;;;10.27;60.08
76819;BME280;65772;51.096;17.006;2024-02-26T08:34:54;99168.92;;;10.33;60.48
76819;BME280;65772;51.096;17.006;2024-02-26T08:37:25;99170.18;;;10.38;60.33
76819;BME280;65772;51.096;17.006;2024-02-26T08:39:56;99168.36;;;10.43;59.98
76819;BME280;65772;51.096;17.006;2024-02-26T08:42:30;99168.59;;;10.47;60.16
76819;BME280;65772;51.096;17.006;2024-02-26T08:45:01;99170.33;;;10.52;60.15
76819;BME280;65772;51.096;17.006;2024-02-26T08:47:32;99163.06;;;10.59;59.79
76819;BME280;65772;51.096;17.006;2024-02-26T08:50:04;99169.45;;;10.66;59.91
76819;BME280;65772;51.096;17.006;2024-02-26T08:52:34;99165.58;;;10.73;59.84
76819;BME280;65772;51.096;17.006;2024-02-26T08:55:07;99164.98;;;10.79;59.90
76819;BME280;65772;51.096;17.006;2024-02-26T08:57:38;99166.90;;;10.85;59.98
76819;BME280;65772;51.096;17.006;2024-02-26T09:00:11;99167.13;;;10.91;59.90
76819;BME280;65772;51.096;17.006;2024-02-26T09:02:42;99165.48;;;10.97;59.57
76819;BME280;65772;51.096;17.006;2024-02-26T09:05:13;99163.82;;;11.04;59.44
76819;BME280;65772;51.096;17.006;2024-02-26T09:07:44;99164.05;;;11.10;59.51
76819;BME280;65772;51.096;17.006;2024-02-26T09:10:16;99162.87;;;11.15;59.14
76819;BME280;65772;51.096;17.006;2024-02-26T09:12:47;99163.11;;;11.21;59.01
76819;BME280;65772;51.096;17.006;2024-02-26T09:15:18;99157.48;;;11.26;58.88
76819;BME280;65772;51.096;17.006;2024-02-26T09:17:48;99166.09;;;11.31;58.81
76819;BME280;65772;51.096;17.006;2024-02-26T09:20:21;99162.17;;;11.35;58.64
76819;BME280;65772;51.096;17.006;2024-02-26T09:22:53;99153.52;;;11.41;58.35
76819;BME280;65772;51.096;17.006;2024-02-26T09:25:24;99156.09;;;11.46;58.12
76819;BME280;65772;51.096;17.006;2024-02-26T09:27:54;99156.82;;;11.50;57.90
76819;BME280;65772;51.096;17.006;2024-02-26T09:30:25;99155.81;;;11.54;58.08
76819;BME280;65772;51.096;17.006;2024-02-26T09:32:56;99158.92;;;11.60;57.99
76819;BME280;65772;51.096;17.006;2024-02-26T09:35:27;99160.66;;;11.67;57.94
76819;BME280;65772;51.096;17.006;2024-02-26T09:37:58;99164.48;;;11.73;57.86
76819;BME280;65772;51.096;17.006;2024-02-26T09:40:29;99162.82;;;11.79;57.74
76819;BME280;65772;51.096;17.006;2024-02-26T09:43:01;99159.45;;;11.87;57.56
76819;BME280;65772;51.096;17.006;2024-02-26T09:45:36;99153.67;;;11.93;57.52
76819;BME280;65772;51.096;17.006;2024-02-26T09:48:09;99156.42;;;11.99;57.34
76819;BME280;65772;51.096;17.006;2024-02-26T09:50:43;99156.45;;;12.04;57.16
76819;BME280;65772;51.096;17.006;2024-02-26T09:53:14;99164.17;;;12.09;57.02
76819;BME280;65772;51.096;17.006;2024-02-26T09:55:45;99162.83;;;12.15;56.96
76819;BME280;65772;51.096;17.006;2024-02-26T09:58:16;99161.81;;;12.22;56.89
76819;BME280;65772;51.096;17.006;2024-02-26T10:00:53;99162.88;;;12.28;56.61
76819;BME280;65772;51.096;17.006;2024-02-26T10:03:27;99163.06;;;12.35;56.59
76819;BME280;65772;51.096;17.006;2024-02-26T10:05:59;99165.81;;;12.41;56.48
76819;BME280;65772;51.096;17.006;2024-02-26T10:08:32;99167.72;;;12.46;56.24
76819;BME280;65772;51.096;17.006;2024-02-26T10:11:04;99167.73;;;12.50;56.01
76819;BME280;65772;51.096;17.006;2024-02-26T10:13:35;99170.98;;;12.54;56.00
76819;BME280;65772;51.096;17.006;2024-02-26T10:16:07;99175.97;;;12.57;56.21
76819;BME280;65772;51.096;17.006;2024-02-26T10:18:52;99173.92;;;12.59;55.89
76819;BME280;65772;51.096;17.006;2024-02-26T10:21:28;99172.21;;;12.65;55.94
76819;BME280;65772;51.096;17.006;2024-02-26T10:23:59;99170.52;;;12.71;55.89
76819;BME280;65772;51.096;17.006;2024-02-26T10:26:30;99168.81;;;12.76;55.46
76819;BME280;65772;51.096;17.006;2024-02-26T10:29:02;99171.89;;;12.82;55.36
76819;BME280;65772;51.096;17.006;2024-02-26T10:31:33;99174.64;;;12.87;55.08
76819;BME280;65772;51.096;17.006;2024-02-26T10:34:04;99175.17;;;12.92;54.79
76819;BME280;65772;51.096;17.006;2024-02-26T10:36:36;99179.09;;;12.94;54.31
76819;BME280;65772;51.096;17.006;2024-02-26T10:39:20;99175.16;;;12.96;54.37
76819;BME280;65772;51.096;17.006;2024-02-26T10:41:51;99173.64;;;12.99;53.97
76819;BME280;65772;51.096;17.006;2024-02-26T10:44:22;99174.33;;;13.01;54.28
76819;BME280;65772;51.096;17.006;2024-02-26T10:46:53;99174.98;;;13.04;54.15
76819;BME280;65772;51.096;17.006;2024-02-26T10:49:24;99176.54;;;13.04;54.00
76819;BME280;65772;51.096;17.006;2024-02-26T10:51:57;99178.93;;;13.06;53.93
76819;BME280;65772;51.096;17.006;2024-02-26T10:54:30;99171.23;;;13.08;53.55
76819;BME280;65772;51.096;17.006;2024-02-26T10:57:04;99172.11;;;13.13;53.37
76819;BME280;65772;51.096;17.006;2024-02-26T10:59:36;99165.44;;;13.20;53.30
76819;BME280;65772;51.096;17.006;2024-02-26T11:02:09;99160.98;;;13.28;53.39
76819;BME280;65772;51.096;17.006;2024-02-26T11:04:40;99157.37;;;13.36;53.09
76819;BME280;65772;51.096;17.006;2024-02-26T11:07:12;99155.31;;;13.42;52.92
76819;BME280;65772;51.096;17.006;2024-02-26T11:09:44;99151.52;;;13.49;52.95
76819;BME280;65772;51.096;17.006;2024-02-26T11:12:22;99147.56;;;13.57;52.80
76819;BME280;65772;51.096;17.006;2024-02-26T11:14:53;99143.62;;;13.64;52.38
76819;BME280;65772;51.096;17.006;2024-02-26T11:17:25;99141.70;;;13.70;52.42
76819;BME280;65772;51.096;17.006;2024-02-26T11:19:55;99147.00;;;13.77;52.25
76819;BME280;65772;51.096;17.006;2024-02-26T11:22:27;99140.64;;;13.81;52.19
76819;BME280;65772;51.096;17.006;2024-02-26T11:24:58;99139.08;;;13.87;52.17
76819;BME280;65772;51.096;17.006;2024-02-26T11:27:32;99135.29;;;13.93;52.08
76819;BME280;65772;51.096;17.006;2024-02-26T11:30:10;99131.66;;;13.98;51.94
76819;BME280;65772;51.096;17.006;2024-02-26T11:32:41;99129.23;;;14.04;51.77
76819;BME280;65772;51.096;17.006;2024-02-26T11:35:14;99129.55;;;14.10;51.55
76819;BME280;65772;51.096;17.006;2024-02-26T11:37:54;99125.75;;;14.15;51.28
76819;BME280;65772;51.096;17.006;2024-02-26T11:40:26;99121.60;;;14.20;51.18
76819;BME280;65772;51.096;17.006;2024-02-26T11:42:57;99117.11;;;14.26;51.08
76819;BME280;65772;51.096;17.006;2024-02-26T11:45:50;99118.95;;;14.32;50.99
76819;BME280;65772;51.096;17.006;2024-02-26T11:48:28;99122.73;;;14.38;50.74
76819;BME280;65772;51.096;17.006;2024-02-26T11:50:59;99117.73;;;14.42;50.17
76819;BME280;65772;51.096;17.006;2024-02-26T11:53:31;99119.78;;;14.45;50.35
76819;BME280;65772;51.096;17.006;2024-02-26T11:56:22;99118.72;;;14.50;50.20
76819;BME280;65772;51.096;17.006;2024-02-26T11:59:01;99120.75;;;14.54;49.81
76819;BME280;65772;51.096;17.006;2024-02-26T12:01:43;99120.05;;;14.57;49.67
76819;BME280;65772;51.096;17.006;2024-02-26T12:04:16;99116.40;;;14.63;49.62
76819;BME280;65772;51.096;17.006;2024-02-26T12:06:50;99113.80;;;14.67;49.56
76819;BME280;65772;51.096;17.006;2024-02-26T12:09:35;99109.16;;;14.68;49.43
76819;BME280;65772;51.096;17.006;2024-02-26T12:12:08;99116.53;;;14.71;49.38
76819;BME280;65772;51.096;17.006;2024-02-26T12:14:57;99115.30;;;14.73;49.05
76819;BME280;65772;51.096;17.006;2024-02-26T12:17:28;99115.62;;;14.76;48.73
76819;BME280;65772;51.096;17.006;2024-02-26T12:20:09;99116.46;;;14.79;48.82
76819;BME280;65772;51.096;17.006;2024-02-26T12:22:41;99118.46;;;14.85;48.72
76819;BME280;65772;51.096;17.006;2024-02-26T12:25:14;99118.28;;;14.87;48.39
76819;BME280;65772;51.096;17.006;2024-02-26T12:27:45;99119.13;;;14.89;48.49
76819;BME280;65772;51.096;17.006;2024-02-26T12:30:16;99115.65;;;14.94;48.57
76819;BME280;65772;51.096;17.006;2024-02-26T12:32:48;99114.06;;;14.99;48.36
76819;BME280;65772;51.096;17.006;2024-02-26T12:35:19;99112.82;;;15.04;48.28
76819;BME280;65772;51.096;17.006;2024-02-26T12:37:50;99110.54;;;15.08;48.05
76819;BME280;65772;51.096;17.006;2024-02-26T12:40:22;99115.17;;;15.10;48.00
76819;BME280;65772;51.096;17.006;2024-02-26T12:42:54;99112.08;;;15.11;47.56
76819;BME280;65772;51.096;17.006;2024-02-26T12:45:26;99107.77;;;15.13;47.57
76819;BME280;65772;51.096;17.006;2024-02-26T12:47:58;99113.27;;;15.14;47.44
76819;BME280;65772;51.096;17.006;2024-02-26T12:50:29;99116.52;;;15.14;47.25
76819;BME280;65772;51.096;17.006;2024-02-26T12:53:01;99114.77;;;15.15;47.16
76819;BME280;65772;51.096;17.006;2024-02-26T12:55:33;99113.21;;;15.17;47.40
76819;BME280;65772;51.096;17.006;2024-02-26T12:58:06;99115.11;;;15.16;47.42
76819;BME280;65772;51.096;17.006;2024-02-26T13:00:37;99115.63;;;15.16;47.53
76819;BME280;65772;51.096;17.006;2024-02-26T13:03:09;99118.23;;;15.14;47.20
76819;BME280;65772;51.096;17.006;2024-02-26T13:05:41;99119.11;;;15.12;47.21
76819;BME280;65772;51.096;17.006;2024-02-26T13:08:18;99117.23;;;15.12;47.12
76819;BME280;65772;51.096;17.006;2024-02-26T13:10:49;99121.53;;;15.11;47.35
76819;BME280;65772;51.096;17.006;2024-02-26T13:13:22;99119.30;;;15.11;47.45
76819;BME280;65772;51.096;17.006;2024-02-26T13:16:02;99122.55;;;15.12;47.42
76819;BME280;65772;51.096;17.006;2024-02-26T13:18:34;99120.48;;;15.14;47.15